Time;durP1;ratioP1;P1;durP2;ratioP2;P2;SDS_P1;SDS_P2;PMS_P1;PMS_P2;Temp;Humidity;BMP_temperature;BMP_pressure;BME280_temperature;BME280_humidity;BME280_pressure;Samples;Min_cycle;Max_cycle;Signal;HPM_P1;HPM_P2
2021/11/09 00:00:18;;;;;;;45.43;17.53;;;7.50;99.90;;;;;;5067192;28;20191;-63
2021/11/09 00:02:45;;;;;;;36.13;17.97;;;7.40;99.90;;;;;;5067447;28;20160;-64
2021/11/09 00:05:14;;;;;;;38.20;17.00;;;7.40;99.90;;;;;;5066305;28;20157;-64
2021/11/09 00:10:08;;;;;;;40.87;16.90;;;7.40;99.90;;;;;;5067138;28;20177;-64
2021/11/09 00:12:38;;;;;;;31.83;16.23;;;7.40;99.90;;;;;;5067193;28;20242;-63
2021/11/09 00:15:07;;;;;;;42.13;16.93;;;7.40;99.90;;;;;;5067305;28;20161;-63
2021/11/09 00:17:32;;;;;;;40.33;17.10;;;7.60;99.90;;;;;;5067031;28;20539;-63
2021/11/09 00:19:58;;;;;;;42.30;18.43;;;8.00;99.90;;;;;;5067232;28;20167;-63
2021/11/09 00:22:25;;;;;;;51.10;19.47;;;8.40;99.90;;;;;;5067404;28;20160;-63
2021/11/09 00:24:52;;;;;;;46.67;19.17;;;8.30;99.90;;;;;;5066855;28;20196;-63
2021/11/09 00:27:19;;;;;;;42.50;18.40;;;8.10;99.90;;;;;;5067084;28;20578;-64
2021/11/09 00:29:45;;;;;;;54.17;19.90;;;7.80;99.90;;;;;;5067123;28;20173;-63
2021/11/09 00:32:11;;;;;;;45.20;18.60;;;7.70;99.90;;;;;;5067115;28;20175;-63
2021/11/09 00:34:36;;;;;;;50.33;19.17;;;7.60;99.90;;;;;;5067225;28;20605;-64
2021/11/09 00:37:04;;;;;;;45.90;18.83;;;7.90;99.90;;;;;;5066763;28;20222;-64
2021/11/09 00:39:30;;;;;;;44.53;18.80;;;8.00;99.90;;;;;;5066320;28;20165;-64
2021/11/09 00:41:56;;;;;;;49.13;19.27;;;7.90;99.90;;;;;;5066897;28;20156;-63
2021/11/09 00:44:23;;;;;;;49.93;19.10;;;7.70;99.90;;;;;;5066762;28;20157;-64
2021/11/09 00:46:50;;;;;;;43.93;17.83;;;7.70;99.90;;;;;;5065378;28;20161;-63
2021/11/09 00:49:16;;;;;;;42.77;18.33;;;7.50;99.90;;;;;;5066585;28;20169;-64
2021/11/09 00:51:44;;;;;;;46.23;17.97;;;7.50;99.90;;;;;;5066794;28;20165;-64
2021/11/09 00:54:10;;;;;;;45.37;18.07;;;7.60;99.90;;;;;;5066041;28;20168;-63
2021/11/09 00:56:36;;;;;;;53.33;18.50;;;7.60;99.90;;;;;;5066594;28;20161;-63
2021/11/09 00:59:03;;;;;;;39.87;16.37;;;7.60;99.90;;;;;;5066157;28;20219;-64
2021/11/09 01:01:29;;;;;;;45.07;16.63;;;7.70;99.90;;;;;;5065158;28;20579;-63
2021/11/09 01:03:55;;;;;;;45.20;17.27;;;7.70;99.90;;;;;;5065141;28;20168;-63
2021/11/09 01:06:21;;;;;;;46.97;17.70;;;7.90;99.90;;;;;;5066621;28;20157;-64
2021/11/09 01:08:47;;;;;;;52.20;17.63;;;8.00;99.90;;;;;;5064589;28;20576;-63
2021/11/09 01:11:13;;;;;;;46.80;17.93;;;7.80;99.90;;;;;;5065830;28;20168;-63
2021/11/09 01:13:38;;;;;;;45.40;17.10;;;7.90;99.90;;;;;;5066155;28;20216;-63
2021/11/09 01:16:04;;;;;;;40.93;17.33;;;7.90;99.90;;;;;;5066368;28;20171;-63
2021/11/09 01:18:41;;;;;;;46.50;19.07;;;8.00;99.90;;;;;;5065932;28;20195;-64
2021/11/09 01:21:08;;;;;;;42.43;18.50;;;8.10;99.90;;;;;;5066332;28;20175;-64
2021/11/09 01:23:34;;;;;;;51.43;19.03;;;8.20;99.90;;;;;;5064679;28;20177;-64
2021/11/09 01:26:01;;;;;;;50.00;20.20;;;8.10;99.90;;;;;;5066381;28;20175;-63
2021/11/09 01:28:27;;;;;;;50.43;20.57;;;8.10;99.90;;;;;;5065882;28;20199;-64
2021/11/09 01:30:53;;;;;;;51.13;19.57;;;8.10;99.90;;;;;;5066220;28;20168;-63
2021/11/09 01:33:20;;;;;;;47.97;19.17;;;8.10;99.90;;;;;;5066092;28;20167;-63
2021/11/09 01:35:46;;;;;;;53.57;20.17;;;7.90;99.90;;;;;;5066204;28;20642;-63
2021/11/09 01:38:11;;;;;;;54.17;20.50;;;7.90;99.90;;;;;;5065580;28;20199;-63
2021/11/09 01:40:40;;;;;;;48.33;18.87;;;7.80;99.90;;;;;;5064691;28;20189;-63
2021/11/09 01:43:06;;;;;;;46.77;18.93;;;7.80;99.90;;;;;;5066012;28;20627;-63
2021/11/09 01:45:33;;;;;;;54.70;20.73;;;7.90;99.90;;;;;;5066091;28;20164;-63
2021/11/09 01:47:58;;;;;;;42.07;18.37;;;7.80;99.90;;;;;;5065823;28;20168;-63
2021/11/09 01:50:33;;;;;;;56.20;18.70;;;7.80;99.90;;;;;;5066013;28;20167;-63
2021/11/09 01:52:59;;;;;;;43.73;18.23;;;7.90;99.90;;;;;;5066044;28;20220;-63
2021/11/09 01:55:26;;;;;;;44.03;17.70;;;7.90;99.90;;;;;;5065901;28;20169;-63
2021/11/09 01:57:53;;;;;;;55.87;19.03;;;7.90;99.90;;;;;;5065541;28;20565;-63
2021/11/09 02:00:23;;;;;;;50.43;18.00;;;7.80;99.90;;;;;;5065750;28;20860;-63
2021/11/09 02:02:50;;;;;;;41.27;17.23;;;7.80;99.90;;;;;;5065965;28;20172;-63
2021/11/09 02:05:17;;;;;;;43.43;17.80;;;7.80;99.90;;;;;;5065896;28;20218;-63
2021/11/09 02:07:54;;;;;;;41.90;17.20;;;7.90;99.90;;;;;;5065643;28;20176;-63
2021/11/09 02:10:27;;;;;;;40.03;16.50;;;7.90;99.90;;;;;;5065564;28;20688;-63
2021/11/09 02:12:54;;;;;;;42.40;17.70;;;7.90;99.90;;;;;;5065575;28;20224;-63
2021/11/09 02:15:20;;;;;;;38.13;16.70;;;7.90;99.90;;;;;;5065774;28;20219;-63
2021/11/09 02:17:47;;;;;;;41.13;16.63;;;8.00;99.90;;;;;;5065331;28;20192;-63
2021/11/09 02:20:16;;;;;;;47.53;18.03;;;7.90;99.90;;;;;;5065686;28;20523;-63
2021/11/09 02:22:42;;;;;;;43.60;17.37;;;8.00;99.90;;;;;;5065773;28;20172;-63
2021/11/09 02:25:12;;;;;;;43.03;17.33;;;8.00;99.90;;;;;;5068805;28;20272;-63
2021/11/09 02:27:39;;;;;;;48.03;19.17;;;8.00;99.90;;;;;;5069178;28;20168;-63
2021/11/09 02:30:08;;;;;;;52.23;18.60;;;8.00;99.90;;;;;;5069234;28;20169;-64
2021/11/09 02:32:34;;;;;;;56.27;18.83;;;7.90;99.90;;;;;;5069267;28;20172;-63
2021/11/09 02:34:59;;;;;;;45.87;18.07;;;7.90;99.90;;;;;;5069249;28;20164;-63
2021/11/09 02:37:25;;;;;;;53.80;20.07;;;7.90;99.90;;;;;;5069040;28;20188;-63
2021/11/09 02:39:51;;;;;;;45.87;19.33;;;7.80;99.90;;;;;;5068822;28;20184;-63
2021/11/09 02:42:19;;;;;;;46.47;19.27;;;7.70;99.90;;;;;;5069180;28;20192;-63
2021/11/09 02:44:51;;;;;;;52.97;19.87;;;7.80;99.90;;;;;;5069030;28;20184;-64
2021/11/09 02:47:17;;;;;;;57.70;19.73;;;7.90;99.90;;;;;;5068946;28;20160;-63
2021/11/09 02:52:22;;;;;;;49.60;20.47;;;8.00;99.90;;;;;;5069198;28;20188;-63
2021/11/09 02:54:51;;;;;;;43.30;19.70;;;8.00;99.90;;;;;;5068608;28;20187;-63
2021/11/09 02:57:55;;;;;;;45.23;18.47;;;7.90;99.90;;;;;;5067674;28;20189;-63
2021/11/09 03:03:20;;;;;;;35.03;17.67;;;7.90;99.90;;;;;;5046458;28;20170;-63
2021/11/09 03:05:56;;;;;;;39.50;18.67;;;7.90;99.90;;;;;;5046600;28;20141;-63
2021/11/09 03:08:34;;;;;;;52.03;18.80;;;8.00;99.90;;;;;;5045845;28;20185;-63
2021/11/09 03:11:01;;;;;;;49.07;16.97;;;7.90;99.90;;;;;;5046510;28;20154;-64
2021/11/09 03:13:27;;;;;;;47.13;16.27;;;8.00;99.90;;;;;;5045930;28;20256;-63
2021/11/09 03:15:57;;;;;;;47.57;16.77;;;7.90;99.90;;;;;;5046426;28;20265;-64
2021/11/09 03:18:25;;;;;;;45.90;16.10;;;7.80;99.90;;;;;;5045966;28;20268;-63
2021/11/09 03:45:18;;;;;;;29.37;11.77;;;7.80;99.90;;;;;;5067994;28;20238;-63
2021/11/09 03:47:47;;;;;;;44.13;12.60;;;8.00;99.90;;;;;;5067752;28;20183;-63
2021/11/09 03:50:16;;;;;;;36.83;12.53;;;8.20;99.90;;;;;;5066377;28;20184;-63
2021/11/09 04:01:06;;;;;;;33.60;11.40;;;7.80;99.90;;;;;;5067674;28;20156;-63
2021/11/09 04:06:30;;;;;;;40.87;11.60;;;7.80;99.90;;;;;;5067848;28;20160;-64
2021/11/09 04:09:11;;;;;;;28.37;12.00;;;7.60;99.90;;;;;;5066856;28;20172;-64
2021/11/09 04:16:58;;;;;;;39.43;11.43;;;7.40;99.90;;;;;;5067451;28;20155;-63
2021/11/09 04:20:02;;;;;;;37.63;11.93;;;7.60;99.90;;;;;;5065831;28;20638;-63
2021/11/09 04:25:33;;;;;;;38.20;12.60;;;7.70;99.90;;;;;;5067025;28;20184;-63
2021/11/09 04:44:42;;;;;;;30.10;11.43;;;7.60;99.90;;;;;;5044575;28;20561;-63
2021/11/09 05:09:54;;;;;;;35.53;10.17;;;7.70;99.90;;;;;;5044091;28;20724;-63
2021/11/09 05:12:20;;;;;;;27.83;9.60;;;7.90;99.90;;;;;;5043911;28;20224;-64
2021/11/09 05:14:46;;;;;;;32.80;9.13;;;7.70;99.90;;;;;;5057900;28;20177;-63
2021/11/09 05:17:11;;;;;;;31.23;9.43;;;7.90;99.90;;;;;;5066180;28;20188;-63
2021/11/09 05:19:37;;;;;;;29.70;10.18;;;7.80;99.90;;;;;;5065592;28;20408;-64
2021/11/09 05:22:03;;;;;;;31.33;10.57;;;7.80;99.90;;;;;;5066337;28;20244;-63
2021/11/09 05:24:29;;;;;;;36.93;9.47;;;7.90;99.90;;;;;;5065630;28;20175;-63
2021/11/09 05:26:55;;;;;;;33.90;9.90;;;8.00;99.90;;;;;;5066018;28;20168;-63
2021/11/09 05:29:21;;;;;;;36.13;9.88;;;8.00;99.90;;;;;;5065301;28;20361;-63
2021/11/09 05:31:46;;;;;;;28.53;9.77;;;7.90;99.90;;;;;;5065866;28;20161;-63
2021/11/09 05:34:12;;;;;;;36.73;9.03;;;7.90;99.90;;;;;;5065811;28;20157;-63
2021/11/09 05:36:41;;;;;;;30.27;9.20;;;7.70;99.90;;;;;;5066376;28;20360;-63
2021/11/09 05:39:15;;;;;;;25.77;8.97;;;7.80;99.90;;;;;;5065171;28;20575;-63
2021/11/09 05:41:42;;;;;;;27.50;9.00;;;7.80;99.90;;;;;;5065983;28;20145;-63
2021/11/09 05:44:09;;;;;;;32.97;9.50;;;7.80;99.90;;;;;;5065692;28;20244;-63
2021/11/09 05:46:36;;;;;;;33.07;8.43;;;7.70;99.90;;;;;;5065873;28;20161;-63
2021/11/09 05:49:03;;;;;;;27.50;9.47;;;7.80;99.90;;;;;;5064155;28;20176;-63
2021/11/09 05:51:29;;;;;;;34.00;8.80;;;8.00;99.90;;;;;;5065940;28;20164;-63
2021/11/09 05:53:55;;;;;;;21.77;8.13;;;8.00;99.90;;;;;;5064389;28;20270;-63
2021/11/09 05:56:21;;;;;;;27.57;8.37;;;7.90;99.90;;;;;;5065857;28;20145;-64
2021/11/09 05:58:47;;;;;;;27.37;8.90;;;7.60;99.90;;;;;;5068473;28;20199;-63
2021/11/09 06:01:12;;;;;;;30.43;8.97;;;7.70;99.90;;;;;;5069735;28;20157;-63
2021/11/09 06:03:38;;;;;;;30.77;8.33;;;7.70;99.90;;;;;;5069125;28;20153;-63
2021/11/09 06:06:04;;;;;;;30.73;7.80;;;7.90;99.90;;;;;;5069652;28;20157;-64
2021/11/09 06:08:29;;;;;;;20.87;8.43;;;7.70;99.90;;;;;;5069266;28;20642;-63
2021/11/09 06:10:55;;;;;;;25.30;8.47;;;7.70;99.90;;;;;;5069451;28;20176;-64
2021/11/09 06:13:21;;;;;;;25.93;8.87;;;7.80;99.90;;;;;;5069287;28;20220;-63
2021/11/09 06:15:46;;;;;;;24.37;7.90;;;7.80;99.90;;;;;;5069383;28;20176;-63
2021/11/09 06:18:13;;;;;;;25.23;8.33;;;7.90;99.90;;;;;;5069382;28;20254;-63
2021/11/09 06:20:39;;;;;;;28.77;8.43;;;7.70;99.90;;;;;;5069407;28;20168;-63
2021/11/09 06:23:05;;;;;;;32.03;8.60;;;7.90;99.90;;;;;;5069476;28;20153;-63
2021/11/09 06:25:31;;;;;;;26.57;8.67;;;7.90;99.90;;;;;;5069239;28;20161;-64
2021/11/09 06:27:57;;;;;;;26.87;8.93;;;7.80;99.90;;;;;;5067913;28;20172;-63
2021/11/09 06:30:23;;;;;;;33.40;8.63;;;7.80;99.90;;;;;;5069069;28;20215;-63
2021/11/09 06:32:49;;;;;;;27.33;9.37;;;8.00;99.90;;;;;;5069021;28;20161;-63
2021/11/09 06:35:16;;;;;;;27.10;8.17;;;8.10;99.90;;;;;;5067644;28;20318;-63
2021/11/09 06:37:41;;;;;;;28.40;9.20;;;8.00;99.90;;;;;;5068857;28;20263;-63
2021/11/09 06:40:08;;;;;;;28.50;9.03;;;8.00;99.90;;;;;;5068578;28;20196;-63
2021/11/09 06:42:35;;;;;;;26.70;8.43;;;7.90;99.90;;;;;;5068974;28;20183;-63
2021/11/09 06:45:01;;;;;;;26.87;8.70;;;7.90;99.90;;;;;;5068863;28;20569;-63
2021/11/09 06:47:27;;;;;;;28.17;8.77;;;7.90;99.90;;;;;;5068435;28;20199;-63
2021/11/09 06:49:53;;;;;;;42.73;8.97;;;7.90;99.90;;;;;;5068141;28;20264;-63
2021/11/09 06:52:19;;;;;;;19.47;8.40;;;8.00;99.90;;;;;;5068753;28;20226;-64
2021/11/09 06:54:46;;;;;;;27.83;8.30;;;7.90;99.90;;;;;;5068287;28;20176;-63
2021/11/09 06:57:12;;;;;;;23.90;8.23;;;7.90;99.90;;;;;;5068883;28;20244;-63
2021/11/09 06:59:38;;;;;;;21.17;7.77;;;7.90;99.90;;;;;;5068394;28;20185;-63
2021/11/09 07:02:06;;;;;;;25.07;9.10;;;7.90;99.90;;;;;;5068678;28;20643;-64
2021/11/09 07:04:31;;;;;;;26.10;8.23;;;7.80;99.90;;;;;;5068555;28;20153;-63
2021/11/09 07:06:57;;;;;;;23.90;8.30;;;7.90;99.90;;;;;;5068723;28;20218;-63
2021/11/09 07:09:23;;;;;;;26.53;8.20;;;7.90;99.90;;;;;;5067079;28;20164;-63
2021/11/09 07:11:49;;;;;;;32.83;7.93;;;7.70;99.90;;;;;;5068371;28;20197;-63
2021/11/09 07:14:16;;;;;;;30.03;8.40;;;7.80;99.90;;;;;;5068268;28;20165;-63
2021/11/09 07:16:44;;;;;;;22.97;8.30;;;7.80;99.90;;;;;;5068494;28;20213;-63
2021/11/09 07:19:11;;;;;;;22.77;7.47;;;7.90;99.90;;;;;;5067808;28;20654;-63
2021/11/09 07:21:37;;;;;;;23.90;7.67;;;7.90;99.90;;;;;;5068296;28;20163;-63
2021/11/09 07:24:03;;;;;;;28.63;8.17;;;8.00;99.90;;;;;;5067698;28;20180;-63
2021/11/09 07:26:29;;;;;;;22.20;8.60;;;7.90;99.90;;;;;;5068124;28;20151;-63
2021/11/09 07:28:57;;;;;;;17.13;7.33;;;8.00;99.90;;;;;;5067898;28;20176;-63
2021/11/09 07:31:24;;;;;;;24.10;7.80;;;8.00;99.90;;;;;;5068060;28;20535;-64
2021/11/09 07:33:51;;;;;;;17.80;7.83;;;7.80;99.90;;;;;;5067732;28;20169;-64
2021/11/09 07:36:17;;;;;;;21.77;7.77;;;7.90;99.90;;;;;;5068112;28;20160;-63
2021/11/09 07:38:44;;;;;;;26.20;8.20;;;8.10;99.90;;;;;;5067334;28;20196;-63
2021/11/09 07:41:09;;;;;;;28.53;8.93;;;8.10;99.90;;;;;;5068072;28;20160;-63
2021/11/09 07:43:35;;;;;;;21.40;7.27;;;8.20;99.90;;;;;;5067596;28;20168;-63
2021/11/09 07:46:01;;;;;;;29.00;7.63;;;8.30;99.90;;;;;;5067957;28;20176;-63
2021/11/09 07:48:27;;;;;;;32.57;8.20;;;8.40;99.90;;;;;;5067701;28;20203;-63
2021/11/09 07:50:53;;;;;;;23.80;7.87;;;8.40;99.90;;;;;;5067646;28;20165;-63
2021/11/09 07:53:20;;;;;;;26.57;8.10;;;8.30;99.90;;;;;;5067569;28;20159;-64
2021/11/09 07:56:05;;;;;;;24.80;7.50;;;8.40;99.90;;;;;;5067368;28;20173;-63
2021/11/09 07:58:37;;;;;;;22.40;7.50;;;8.30;99.90;;;;;;5067445;28;20184;-63
2021/11/09 08:01:29;;;;;;;22.93;7.17;;;8.40;99.90;;;;;;5067584;28;20261;-63
2021/11/09 08:04:04;;;;;;;22.17;7.83;;;8.40;99.90;;;;;;5067149;28;20240;-64
2021/11/09 08:06:43;;;;;;;28.07;7.97;;;8.50;99.90;;;;;;5067627;28;20141;-63
2021/11/09 08:09:13;;;;;;;20.60;7.23;;;8.50;99.90;;;;;;5066951;28;20255;-63
2021/11/09 08:11:44;;;;;;;20.80;8.10;;;8.60;99.90;;;;;;5067273;28;20169;-63
2021/11/09 08:14:10;;;;;;;19.53;6.30;;;8.70;99.90;;;;;;5067337;28;20256;-63
2021/11/09 08:16:36;;;;;;;18.20;7.13;;;8.60;99.90;;;;;;5067258;28;20187;-63
2021/11/09 08:19:02;;;;;;;21.23;6.63;;;8.70;99.90;;;;;;5066788;28;20189;-63
2021/11/09 08:21:28;;;;;;;28.40;8.60;;;8.80;99.90;;;;;;5067050;28;20161;-63
2021/11/09 08:23:54;;;;;;;21.30;6.63;;;8.90;99.90;;;;;;5066756;28;20152;-63
2021/11/09 08:26:24;;;;;;;21.63;6.80;;;9.00;99.90;;;;;;5067024;28;20141;-64
2021/11/09 08:28:54;;;;;;;17.03;6.73;;;9.20;99.90;;;;;;5066724;28;20267;-63
2021/11/09 08:31:22;;;;;;;19.93;6.67;;;9.20;99.90;;;;;;5067043;28;20153;-63
2021/11/09 08:33:50;;;;;;;21.80;7.20;;;9.30;99.90;;;;;;5066749;28;20176;-63
2021/11/09 08:36:22;;;;;;;24.83;6.20;;;9.30;99.90;;;;;;5065644;28;20207;-63
2021/11/09 08:38:48;;;;;;;25.83;6.83;;;9.40;99.90;;;;;;5066317;28;20189;-63
2021/11/09 08:41:14;;;;;;;21.37;7.83;;;9.50;99.90;;;;;;5066835;28;20190;-64
2021/11/09 08:43:46;;;;;;;17.43;6.57;;;9.50;99.90;;;;;;5066834;28;20160;-63
2021/11/09 08:46:20;;;;;;;16.40;6.73;;;9.40;99.90;;;;;;5065453;28;20593;-63
2021/11/09 08:48:48;;;;;;;22.30;7.13;;;9.30;99.90;;;;;;5066614;28;20175;-63
2021/11/09 08:51:16;;;;;;;25.33;7.37;;;9.40;99.90;;;;;;5066442;28;20169;-63
2021/11/09 08:53:46;;;;;;;20.57;6.30;;;9.40;99.90;;;;;;5066225;28;20172;-63
2021/11/09 09:06:32;;;;;;;23.67;6.73;;;9.40;99.90;;;;;;5066498;28;20156;-63
2021/11/09 09:09:02;;;;;;;20.93;6.77;;;9.40;99.90;;;;;;5065770;28;20172;-63
2021/11/09 09:11:29;;;;;;;19.30;6.23;;;9.60;99.90;;;;;;5066396;28;20164;-63
2021/11/09 09:13:55;;;;;;;22.53;6.73;;;9.60;99.90;;;;;;5066090;28;20209;-64
2021/11/09 09:16:21;;;;;;;16.67;6.70;;;9.50;99.90;;;;;;5066176;28;20172;-63
2021/11/09 09:18:47;;;;;;;35.47;7.60;;;9.60;99.90;;;;;;5064715;28;20203;-63
2021/11/09 09:21:15;;;;;;;22.17;6.73;;;9.70;99.90;;;;;;5064795;28;20168;-63
2021/11/09 09:23:57;;;;;;;27.43;6.57;;;9.90;99.90;;;;;;5065929;28;20220;-64
2021/11/09 09:26:38;;;;;;;21.00;7.13;;;9.90;99.90;;;;;;5066198;28;20501;-63
2021/11/09 09:56:57;;;;;;;29.42;6.93;;;10.70;99.90;;;;;;4965267;29;20423;-63
2021/11/09 09:59:26;;;;;;;19.53;6.17;;;11.00;99.90;;;;;;4964983;29;20196;-64
2021/11/09 10:02:14;;;;;;;23.20;5.77;;;11.10;99.90;;;;;;4965194;29;20182;-64
2021/11/09 10:04:53;;;;;;;21.43;5.67;;;11.30;99.90;;;;;;4965138;29;20180;-64
2021/11/09 10:07:39;;;;;;;15.18;5.78;;;11.50;99.90;;;;;;4965488;29;20293;-64
2021/11/09 10:10:10;;;;;;;20.20;5.85;;;11.60;99.90;;;;;;5002915;28;20314;-64
2021/11/09 10:12:38;;;;;;;25.50;6.18;;;11.70;99.90;;;;;;5003824;28;20214;-63
2021/11/09 10:15:11;;;;;;;18.95;5.45;;;11.80;99.90;;;;;;5052519;28;20181;-64
2021/11/09 10:17:40;;;;;;;18.90;6.35;;;11.80;99.90;;;;;;5065471;28;20196;-64
2021/11/09 10:20:18;;;;;;;22.10;5.83;;;11.60;99.90;;;;;;5065324;28;20165;-64
2021/11/09 10:22:51;;;;;;;19.88;5.35;;;11.60;99.90;;;;;;5065719;28;20156;-64
2021/11/09 10:25:20;;;;;;;21.33;5.80;;;11.30;99.90;;;;;;5065053;28;20173;-64
2021/11/09 10:27:51;;;;;;;23.42;5.28;;;11.30;99.90;;;;;;5065607;28;20172;-64
2021/11/09 10:30:18;;;;;;;19.13;5.53;;;11.40;99.90;;;;;;5065346;28;20176;-64
2021/11/09 10:32:46;;;;;;;21.85;5.85;;;11.70;99.90;;;;;;5065344;28;20169;-64
2021/11/09 10:35:13;;;;;;;25.20;5.05;;;12.00;99.90;;;;;;5065353;28;20165;-63
2021/11/09 10:37:45;;;;;;;19.77;4.70;;;12.20;99.90;;;;;;5065359;28;20189;-63
2021/11/09 10:40:18;;;;;;;26.17;5.93;;;12.10;99.90;;;;;;5064776;28;20165;-64
2021/11/09 10:42:48;;;;;;;21.35;5.97;;;12.20;99.90;;;;;;5065302;28;20168;-64
2021/11/09 10:45:21;;;;;;;17.27;5.38;;;12.10;99.90;;;;;;5067561;28;20167;-64
2021/11/09 10:47:55;;;;;;;17.67;5.75;;;12.20;99.90;;;;;;5069044;28;20157;-64
2021/11/09 10:50:26;;;;;;;13.27;5.28;;;12.10;99.90;;;;;;5068963;28;20156;-64
2021/11/09 10:53:04;;;;;;;18.38;5.50;;;12.00;99.90;;;;;;5069104;28;20153;-64
2021/11/09 10:55:36;;;;;;;24.70;5.55;;;12.20;99.90;;;;;;5068393;28;20510;-64
2021/11/09 10:58:17;;;;;;;22.08;5.35;;;12.40;99.90;;;;;;5068785;28;20256;-64
2021/11/09 11:03:31;;;;;;;23.33;6.38;;;12.30;99.90;;;;;;5068989;28;20168;-64
2021/11/09 11:06:52;;;;;;;18.58;6.30;;;12.70;99.90;;;;;;5068181;28;20411;-64
2021/11/09 11:09:20;;;;;;;22.02;5.25;;;13.10;99.90;;;;;;5025798;28;20182;-65
2021/11/09 11:11:51;;;;;;;26.75;6.05;;;13.10;99.90;;;;;;5009849;28;20193;-64
2021/11/09 11:14:25;;;;;;;14.05;5.65;;;12.90;99.90;;;;;;5026449;28;20192;-64
2021/11/09 11:16:56;;;;;;;23.15;6.60;;;12.70;99.90;;;;;;5026357;28;20174;-64
2021/11/09 11:19:23;;;;;;;23.35;5.55;;;12.70;99.90;;;;;;5026119;28;20262;-64
2021/11/09 11:21:49;;;;;;;20.27;5.25;;;12.80;99.90;;;;;;5026485;28;20166;-63
2021/11/09 11:24:15;;;;;;;21.00;6.10;;;12.70;99.90;;;;;;5025270;28;20423;-64
2021/11/09 11:26:44;;;;;;;24.17;5.90;;;12.80;99.90;;;;;;5026139;28;20242;-64
2021/11/09 11:29:18;;;;;;;15.35;4.53;;;12.70;99.90;;;;;;5025764;28;20217;-63
2021/11/09 11:31:46;;;;;;;22.00;6.30;;;12.80;99.90;;;;;;5026251;28;20224;-63
2021/11/09 11:34:13;;;;;;;16.85;5.47;;;12.60;99.90;;;;;;5025948;28;20166;-63
2021/11/09 11:36:39;;;;;;;18.05;5.50;;;12.60;99.90;;;;;;5026138;28;20182;-63
2021/11/09 11:39:08;;;;;;;23.08;5.28;;;12.30;99.90;;;;;;5025050;28;20197;-63
2021/11/09 11:41:37;;;;;;;15.88;5.75;;;12.30;99.90;;;;;;5009639;28;20169;-63
2021/11/09 11:44:06;;;;;;;26.45;6.00;;;12.40;99.90;;;;;;5060472;28;20176;-63
2021/11/09 11:46:35;;;;;;;30.50;5.22;;;12.60;99.90;;;;;;5067084;28;20164;-63
2021/11/09 11:49:06;;;;;;;15.35;4.70;;;12.70;99.90;;;;;;5067458;28;20179;-63
2021/11/09 11:51:35;;;;;;;16.60;4.85;;;12.80;99.90;;;;;;5067776;28;20160;-63
2021/11/09 11:54:02;;;;;;;12.98;5.03;;;13.00;99.90;;;;;;5066010;28;20513;-63
2021/11/09 11:56:41;;;;;;;25.05;5.00;;;13.00;99.90;;;;;;5067268;28;20208;-63
2021/11/09 11:59:12;;;;;;;17.40;5.57;;;13.00;99.90;;;;;;5067233;28;20188;-62
2021/11/09 12:01:41;;;;;;;18.50;4.82;;;13.00;99.90;;;;;;5067561;28;20471;-63
2021/11/09 12:04:08;;;;;;;25.48;4.90;;;13.00;99.90;;;;;;5067316;28;20184;-63
2021/11/09 12:06:51;;;;;;;25.70;4.97;;;13.20;99.90;;;;;;5067418;28;20187;-63
2021/11/09 12:09:35;;;;;;;22.83;5.55;;;13.40;99.90;;;;;;5067017;28;20176;-63
2021/11/09 12:12:22;;;;;;;21.88;4.80;;;13.90;99.90;;;;;;5067102;28;20219;-63
2021/11/09 12:15:00;;;;;;;15.35;4.60;;;14.10;99.90;;;;;;5067163;28;20177;-63
2021/11/09 12:17:32;;;;;;;16.50;4.35;;;14.00;99.90;;;;;;5065986;28;20223;-63
2021/11/09 12:20:05;;;;;;;21.35;5.47;;;13.80;99.90;;;;;;5066883;28;20172;-63
2021/11/09 12:22:52;;;;;;;23.00;4.80;;;13.70;99.90;;;;;;5067173;28;20141;-63
2021/11/09 12:25:33;;;;;;;15.68;4.50;;;13.70;99.90;;;;;;5066643;28;20195;-63
2021/11/09 12:28:10;;;;;;;24.17;5.45;;;13.40;99.90;;;;;;5067193;28;20168;-63
2021/11/09 12:30:46;;;;;;;21.05;5.13;;;13.70;99.90;;;;;;5067101;28;20569;-63
2021/11/09 12:33:24;;;;;;;38.45;6.35;;;13.80;99.90;;;;;;5066961;28;20188;-63
2021/11/09 12:35:58;;;;;;;16.35;4.57;;;14.20;99.90;;;;;;5066959;28;20157;-63
2021/11/09 12:38:33;;;;;;;23.05;4.28;;;14.20;99.90;;;;;;5066230;28;20225;-63
2021/11/09 12:41:01;;;;;;;19.85;4.80;;;14.10;99.90;;;;;;5066563;28;20168;-63
2021/11/09 12:43:30;;;;;;;16.20;4.68;;;14.00;99.90;;;;;;5066825;28;20168;-63
2021/11/09 12:46:08;;;;;;;24.45;5.63;;;14.20;99.90;;;;;;5066879;28;20210;-63
2021/11/09 12:48:37;;;;;;;22.45;5.45;;;14.30;99.90;;;;;;5066535;28;20208;-63
2021/11/09 12:51:07;;;;;;;29.65;7.03;;;14.10;99.90;;;;;;5066645;28;20156;-63
2021/11/09 12:53:44;;;;;;;14.38;4.88;;;14.30;99.90;;;;;;5066863;28;20207;-63
2021/11/09 12:56:29;;;;;;;18.48;4.82;;;14.10;99.90;;;;;;5066143;28;20184;-63
2021/11/09 12:59:03;;;;;;;18.35;4.82;;;14.20;99.90;;;;;;5065046;28;20203;-64
2021/11/09 13:04:04;;;;;;;19.60;5.40;;;14.00;99.90;;;;;;5066465;28;20161;-63
2021/11/09 13:09:40;;;;;;;25.92;4.78;;;14.10;99.90;;;;;;5065963;28;20596;-63
2021/11/09 13:12:13;;;;;;;19.35;4.78;;;14.30;99.90;;;;;;5066255;28;20215;-63
2021/11/09 13:15:00;;;;;;;17.40;5.05;;;14.40;99.90;;;;;;5066324;28;20164;-63
2021/11/09 13:17:42;;;;;;;19.75;5.88;;;14.50;99.90;;;;;;5064939;28;20593;-63
2021/11/09 13:20:35;;;;;;;27.65;5.32;;;14.50;99.90;;;;;;5065957;28;20168;-63
2021/11/09 13:23:08;;;;;;;23.92;5.22;;;14.90;99.90;;;;;;5064934;28;20161;-63
2021/11/09 13:25:43;;;;;;;19.00;4.65;;;15.10;99.90;;;;;;5065753;28;20244;-63
2021/11/09 13:28:14;;;;;;;29.05;4.70;;;15.00;99.90;;;;;;5066196;28;20214;-63
2021/11/09 13:30:42;;;;;;;22.17;4.60;;;15.00;99.90;;;;;;5065847;28;20180;-63
2021/11/09 13:33:09;;;;;;;14.80;4.47;;;14.70;99.90;;;;;;5066189;28;20213;-63
2021/11/09 13:35:45;;;;;;;18.80;5.20;;;14.30;99.90;;;;;;5066097;28;20164;-63
2021/11/09 13:38:18;;;;;;;19.55;4.65;;;14.30;99.90;;;;;;5066208;28;20188;-63
2021/11/09 13:40:57;;;;;;;18.05;5.10;;;14.10;99.90;;;;;;5065688;28;20192;-63
2021/11/09 13:43:27;;;;;;;194.93;21.65;;;14.20;99.90;;;;;;5066254;28;20172;-63
2021/11/09 13:46:14;;;;;;;178.85;17.65;;;14.60;99.90;;;;;;5065509;28;20175;-63
2021/11/09 13:48:45;;;;;;;111.60;11.25;;;14.90;99.90;;;;;;5065783;28;20169;-63
2021/11/09 13:51:14;;;;;;;54.10;8.35;;;15.00;99.90;;;;;;5065855;28;20188;-63
2021/11/09 13:53:43;;;;;;;25.08;4.57;;;15.00;99.90;;;;;;5066024;28;20297;-63
2021/11/09 13:56:17;;;;;;;53.47;8.90;;;14.90;99.90;;;;;;5065479;28;20240;-63
2021/11/09 13:59:05;;;;;;;24.52;4.30;;;14.80;99.90;;;;;;5065662;28;20685;-63
2021/11/09 14:01:58;;;;;;;86.82;9.65;;;14.90;99.90;;;;;;5065748;28;20188;-63
2021/11/09 14:10:05;;;;;;;28.77;5.25;;;14.70;99.90;;;;;;5065166;28;20177;-63
2021/11/09 14:17:36;;;;;;;55.65;7.53;;;14.60;99.90;;;;;;5065810;28;20192;-63
2021/11/09 14:20:16;;;;;;;21.08;4.80;;;14.70;99.90;;;;;;5067144;28;20587;-63
2021/11/09 14:22:46;;;;;;;57.83;8.38;;;15.00;99.90;;;;;;5068819;28;20240;-63
2021/11/09 14:25:16;;;;;;;26.13;6.35;;;15.00;99.90;;;;;;5068607;28;20600;-63
2021/11/09 14:27:46;;;;;;;24.92;6.00;;;14.70;99.90;;;;;;5069634;28;20157;-63
2021/11/09 14:30:18;;;;;;;22.30;4.20;;;14.50;99.90;;;;;;5068969;28;20252;-63
2021/11/09 14:32:43;;;;;;;17.45;4.70;;;14.70;99.90;;;;;;5069170;28;20149;-63
2021/11/09 14:35:26;;;;;;;20.23;4.05;;;14.70;99.90;;;;;;5068776;28;20667;-63
2021/11/09 14:38:03;;;;;;;30.23;5.63;;;14.80;99.90;;;;;;5069263;28;20187;-63
2021/11/09 14:40:42;;;;;;;18.25;4.95;;;14.90;99.90;;;;;;5067022;28;20175;-63
2021/11/09 14:43:21;;;;;;;21.58;5.80;;;14.90;99.90;;;;;;5069118;28;20145;-63
2021/11/09 14:45:58;;;;;;;11.75;4.35;;;15.00;99.90;;;;;;5068938;28;20153;-63
2021/11/09 14:48:51;;;;;;;26.00;4.68;;;14.90;99.90;;;;;;5068989;28;20152;-63
2021/11/09 14:56:34;;;;;;;51.67;8.15;;;15.10;99.90;;;;;;5068543;28;20191;-63
2021/11/09 14:59:02;;;;;;;28.17;5.53;;;15.10;99.90;;;;;;5068642;28;20199;-63
2021/11/09 15:01:48;;;;;;;48.88;7.75;;;15.10;99.90;;;;;;5068613;28;20180;-63
2021/11/09 15:04:20;;;;;;;33.17;7.13;;;15.10;99.90;;;;;;5068490;28;20256;-63
2021/11/09 15:12:51;;;;;;;20.38;5.15;;;15.10;99.90;;;;;;5068571;28;20567;-63
2021/11/09 15:26:31;;;;;;;17.15;4.72;;;14.60;99.90;;;;;;5067634;28;20211;-63
2021/11/09 15:34:00;;;;;;;19.13;5.13;;;14.20;99.90;;;;;;5068534;28;20310;-64
2021/11/09 15:36:31;;;;;;;16.25;4.88;;;14.30;99.90;;;;;;5068146;28;20187;-65
2021/11/09 15:38:57;;;;;;;17.27;5.93;;;14.30;99.90;;;;;;5067812;28;20238;-66
2021/11/09 15:41:23;;;;;;;18.98;5.72;;;14.20;99.90;;;;;;5065917;28;20419;-63
2021/11/09 15:43:49;;;;;;;31.27;11.35;;;14.10;99.90;;;;;;5068044;28;20232;-63
2021/11/09 15:46:15;;;;;;;19.38;4.93;;;14.00;99.90;;;;;;5067953;28;20251;-63
2021/11/09 15:48:40;;;;;;;25.42;5.25;;;14.10;99.90;;;;;;5066507;28;20180;-63
2021/11/09 15:51:07;;;;;;;21.97;4.80;;;14.00;99.90;;;;;;5067723;28;20411;-65